sensor_id;sensor_type;location;lat;lon;timestamp;pressure;altitude;pressure_sealevel;temperature;humidity
7802;BME280;3945;48.952;9.506;2023-05-08T00:01:54;98181.16;;;15.23;100.00
7802;BME280;3945;48.952;9.506;2023-05-08T00:04:21;98181.97;;;15.24;100.00
7802;BME280;3945;48.952;9.506;2023-05-08T00:06:47;98186.50;;;15.23;100.00
7802;BME280;3945;48.952;9.506;2023-05-08T00:09:15;98182.22;;;15.22;100.00
7802;BME280;3945;48.952;9.506;2023-05-08T00:11:41;98178.97;;;15.20;100.00
7802;BME280;3945;48.952;9.506;2023-05-08T00:14:09;98184.63;;;15.19;100.00
7802;BME280;3945;48.952;9.506;2023-05-08T00:16:35;98184.63;;;15.19;100.00
7802;BME280;3945;48.952;9.506;2023-05-08T00:19:02;98187.31;;;15.19;100.00
7802;BME280;3945;48.952;9.506;2023-05-08T00:21:28;98177.66;;;15.18;100.00
7802;BME280;3945;48.952;9.506;2023-05-08T00:23:55;98185.16;;;15.21;100.00
7802;BME280;3945;48.952;9.506;2023-05-08T00:26:21;98181.66;;;15.20;100.00
7802;BME280;3945;48.952;9.506;2023-05-08T00:28:47;98184.34;;;15.20;100.00
7802;BME280;3945;48.952;9.506;2023-05-08T00:31:15;98182.22;;;15.22;100.00
7802;BME280;3945;48.952;9.506;2023-05-08T00:33:42;98180.34;;;15.23;100.00
7802;BME280;3945;48.952;9.506;2023-05-08T00:36:08;98184.91;;;15.22;100.00
7802;BME280;3945;48.952;9.506;2023-05-08T00:38:35;98187.84;;;15.21;100.00
7802;BME280;3945;48.952;9.506;2023-05-08T00:41:01;98186.75;;;15.22;100.00
7802;BME280;3945;48.952;9.506;2023-05-08T00:43:28;98194.25;;;15.20;100.00
7802;BME280;3945;48.952;9.506;2023-05-08T00:45:55;98190.50;;;15.16;100.00
7802;BME280;3945;48.952;9.506;2023-05-08T00:48:22;98185.41;;;15.14;100.00
7802;BME280;3945;48.952;9.506;2023-05-08T00:50:50;98183.53;;;15.10;100.00
7802;BME280;3945;48.952;9.506;2023-05-08T00:53:18;98184.84;;;15.07;100.00
7802;BME280;3945;48.952;9.506;2023-05-08T00:55:44;98190.75;;;15.04;100.00
7802;BME280;3945;48.952;9.506;2023-05-08T00:58:11;98187.22;;;14.99;100.00
7802;BME280;3945;48.952;9.506;2023-05-08T01:00:38;98191.50;;;15.00;100.00
7802;BME280;3945;48.952;9.506;2023-05-08T01:03:06;98195.53;;;14.97;100.00
7802;BME280;3945;48.952;9.506;2023-05-08T01:05:34;98184.81;;;14.97;100.00
7802;BME280;3945;48.952;9.506;2023-05-08T01:08:01;98191.00;;;14.98;100.00
7802;BME280;3945;48.952;9.506;2023-05-08T01:10:29;98192.88;;;14.97;100.00
7802;BME280;3945;48.952;9.506;2023-05-08T01:12:58;98187.75;;;14.96;100.00
7802;BME280;3945;48.952;9.506;2023-05-08T01:15:30;98191.50;;;14.95;100.00
7802;BME280;3945;48.952;9.506;2023-05-08T01:18:01;98193.38;;;14.94;100.00
7802;BME280;3945;48.952;9.506;2023-05-08T01:20:33;98196.06;;;14.94;100.00
7802;BME280;3945;48.952;9.506;2023-05-08T01:23:07;98195.25;;;14.94;100.00
7802;BME280;3945;48.952;9.506;2023-05-08T01:25:55;98198.19;;;14.92;100.00
7802;BME280;3945;48.952;9.506;2023-05-08T01:31:19;98197.66;;;14.90;100.00
7802;BME280;3945;48.952;9.506;2023-05-08T01:33:52;98194.97;;;14.90;100.00
7802;BME280;3945;48.952;9.506;2023-05-08T01:36:22;98198.72;;;14.89;100.00
7802;BME280;3945;48.952;9.506;2023-05-08T01:38:52;98190.69;;;14.89;100.00
7802;BME280;3945;48.952;9.506;2023-05-08T01:41:24;98198.97;;;14.88;100.00
7802;BME280;3945;48.952;9.506;2023-05-08T01:43:51;98196.56;;;14.86;100.00
7802;BME280;3945;48.952;9.506;2023-05-08T01:46:19;98203.53;;;14.87;100.00
7802;BME280;3945;48.952;9.506;2023-05-08T01:48:48;98198.72;;;14.89;100.00
7802;BME280;3945;48.952;9.506;2023-05-08T01:51:18;98210.00;;;14.91;100.00
7802;BME280;3945;48.952;9.506;2023-05-08T01:53:47;98214.25;;;14.92;100.00
7802;BME280;3945;48.952;9.506;2023-05-08T01:56:15;98210.25;;;14.95;100.00
7802;BME280;3945;48.952;9.506;2023-05-08T01:58:44;98213.25;;;14.98;100.00
7802;BME280;3945;48.952;9.506;2023-05-08T02:01:11;98223.16;;;14.98;100.00
7802;BME280;3945;48.952;9.506;2023-05-08T02:03:38;98221.28;;;14.98;100.00
7802;BME280;3945;48.952;9.506;2023-05-08T02:06:06;98219.66;;;14.97;100.00
7802;BME280;3945;48.952;9.506;2023-05-08T02:08:34;98231.72;;;14.95;100.00
7802;BME280;3945;48.952;9.506;2023-05-08T02:11:01;98222.84;;;14.94;100.00
7802;BME280;3945;48.952;9.506;2023-05-08T02:13:29;98222.06;;;14.94;100.00
7802;BME280;3945;48.952;9.506;2023-05-08T02:15:56;98228.22;;;14.94;100.00
7802;BME280;3945;48.952;9.506;2023-05-08T02:18:23;98227.41;;;14.94;100.00
7802;BME280;3945;48.952;9.506;2023-05-08T02:20:51;98224.47;;;14.95;100.00
7802;BME280;3945;48.952;9.506;2023-05-08T02:23:19;98230.09;;;14.94;100.00
7802;BME280;3945;48.952;9.506;2023-05-08T02:25:47;98228.75;;;14.91;100.00
7802;BME280;3945;48.952;9.506;2023-05-08T02:28:14;98224.72;;;14.94;100.00
7802;BME280;3945;48.952;9.506;2023-05-08T02:30:41;98224.97;;;14.92;100.00
7802;BME280;3945;48.952;9.506;2023-05-08T02:33:09;98231.44;;;14.91;100.00
7802;BME280;3945;48.952;9.506;2023-05-08T02:35:36;98227.13;;;14.90;100.00
7802;BME280;3945;48.952;9.506;2023-05-08T02:38:04;98230.63;;;14.91;100.00
7802;BME280;3945;48.952;9.506;2023-05-08T02:40:34;98230.63;;;14.91;100.00
7802;BME280;3945;48.952;9.506;2023-05-08T02:43:03;98224.47;;;14.90;100.00
7802;BME280;3945;48.952;9.506;2023-05-08T02:45:31;98226.34;;;14.90;100.00
7802;BME280;3945;48.952;9.506;2023-05-08T02:48:00;98228.19;;;14.89;100.00
7802;BME280;3945;48.952;9.506;2023-05-08T02:50:34;98227.66;;;14.92;100.00
7802;BME280;3945;48.952;9.506;2023-05-08T02:53:04;98235.19;;;14.90;100.00
7802;BME280;3945;48.952;9.506;2023-05-08T02:55:32;98233.31;;;14.91;100.00
7802;BME280;3945;48.952;9.506;2023-05-08T02:58:07;98233.31;;;14.91;100.00
7802;BME280;3945;48.952;9.506;2023-05-08T03:00:39;98228.47;;;14.88;100.00
7802;BME280;3945;48.952;9.506;2023-05-08T03:03:08;98234.88;;;14.87;100.00
7802;BME280;3945;48.952;9.506;2023-05-08T03:05:37;98226.28;;;14.84;100.00
7802;BME280;3945;48.952;9.506;2023-05-08T03:08:05;98233.50;;;14.84;100.00
7802;BME280;3945;48.952;9.506;2023-05-08T03:10:32;98223.09;;;14.82;100.00
7802;BME280;3945;48.952;9.506;2023-05-08T03:13:00;98226.28;;;14.79;100.00
7802;BME280;3945;48.952;9.506;2023-05-08T03:15:32;98221.72;;;14.80;100.00
7802;BME280;3945;48.952;9.506;2023-05-08T03:17:59;98219.03;;;14.80;100.00
7802;BME280;3945;48.952;9.506;2023-05-08T03:20:29;98214.22;;;14.82;100.00
7802;BME280;3945;48.952;9.506;2023-05-08T03:22:56;98219.34;;;14.83;100.00
7802;BME280;3945;48.952;9.506;2023-05-08T03:25:23;98213.69;;;14.85;100.00
7802;BME280;3945;48.952;9.506;2023-05-08T03:27:50;98214.25;;;14.87;100.00
7802;BME280;3945;48.952;9.506;2023-05-08T03:30:16;98220.41;;;14.88;100.00
7802;BME280;3945;48.952;9.506;2023-05-08T03:32:45;98216.41;;;14.90;100.00
7802;BME280;3945;48.952;9.506;2023-05-08T03:35:12;98220.41;;;14.88;100.00
7802;BME280;3945;48.952;9.506;2023-05-08T03:37:38;98221.47;;;14.87;100.00
7802;BME280;3945;48.952;9.506;2023-05-08T03:40:06;98216.13;;;14.87;100.00
7802;BME280;3945;48.952;9.506;2023-05-08T03:42:33;98223.09;;;14.88;100.00
7802;BME280;3945;48.952;9.506;2023-05-08T03:44:59;98218.28;;;14.90;100.00
7802;BME280;3945;48.952;9.506;2023-05-08T03:47:27;98218.28;;;14.90;100.00
7802;BME280;3945;48.952;9.506;2023-05-08T03:49:55;98215.88;;;14.88;100.00
7802;BME280;3945;48.952;9.506;2023-05-08T03:52:22;98221.22;;;14.88;100.00
7802;BME280;3945;48.952;9.506;2023-05-08T03:54:48;98223.34;;;14.86;100.00
7802;BME280;3945;48.952;9.506;2023-05-08T03:57:15;98225.22;;;14.85;100.00
7802;BME280;3945;48.952;9.506;2023-05-08T03:59:43;98222.03;;;14.83;100.00
7802;BME280;3945;48.952;9.506;2023-05-08T04:02:14;98228.13;;;14.79;100.00
7802;BME280;3945;48.952;9.506;2023-05-08T04:04:43;98227.34;;;14.78;100.00
7802;BME280;3945;48.952;9.506;2023-05-08T04:07:13;98227.59;;;14.77;100.00
7802;BME280;3945;48.952;9.506;2023-05-08T04:09:42;98221.69;;;14.75;100.00
7802;BME280;3945;48.952;9.506;2023-05-08T04:12:12;98229.19;;;14.73;100.00
7802;BME280;3945;48.952;9.506;2023-05-08T04:14:41;98232.13;;;14.71;100.00
7802;BME280;3945;48.952;9.506;2023-05-08T04:17:08;98237.72;;;14.70;100.00
7802;BME280;3945;48.952;9.506;2023-05-08T04:19:37;98235.84;;;14.70;100.00
7802;BME280;3945;48.952;9.506;2023-05-08T04:22:04;98243.09;;;14.70;100.00
7802;BME280;3945;48.952;9.506;2023-05-08T04:24:32;98246.31;;;14.72;100.00
7802;BME280;3945;48.952;9.506;2023-05-08T04:27:00;98241.78;;;14.72;100.00
7802;BME280;3945;48.952;9.506;2023-05-08T04:29:26;98245.81;;;14.75;100.00
7802;BME280;3945;48.952;9.506;2023-05-08T04:31:53;98247.13;;;14.72;100.00
7802;BME280;3945;48.952;9.506;2023-05-08T04:34:20;98245.25;;;14.73;100.00
7802;BME280;3945;48.952;9.506;2023-05-08T04:36:47;98251.97;;;14.75;100.00
7802;BME280;3945;48.952;9.506;2023-05-08T04:39:14;98252.78;;;14.76;100.00
7802;BME280;3945;48.952;9.506;2023-05-08T04:41:42;98247.16;;;14.77;100.00
7802;BME280;3945;48.952;9.506;2023-05-08T04:44:08;98257.59;;;14.79;100.00
7802;BME280;3945;48.952;9.506;2023-05-08T04:46:35;98260.84;;;14.81;100.00
7802;BME280;3945;48.952;9.506;2023-05-08T04:49:02;98261.91;;;14.80;100.00
7802;BME280;3945;48.952;9.506;2023-05-08T04:51:28;98260.84;;;14.81;100.00
7802;BME280;3945;48.952;9.506;2023-05-08T04:53:55;98265.16;;;14.82;100.00
7802;BME280;3945;48.952;9.506;2023-05-08T04:56:22;98265.66;;;14.84;100.00
7802;BME280;3945;48.952;9.506;2023-05-08T04:58:49;98263.53;;;14.86;100.00
7802;BME280;3945;48.952;9.506;2023-05-08T05:01:16;98271.88;;;14.90;100.00
7802;BME280;3945;48.952;9.506;2023-05-08T05:03:42;98269.47;;;14.93;100.00
7802;BME280;3945;48.952;9.506;2023-05-08T05:06:08;98275.66;;;14.94;100.00
7802;BME280;3945;48.952;9.506;2023-05-08T05:08:35;98277.53;;;14.93;100.00
7802;BME280;3945;48.952;9.506;2023-05-08T05:11:01;98278.88;;;14.96;100.00
7802;BME280;3945;48.952;9.506;2023-05-08T05:13:27;98273.28;;;14.97;100.00
7802;BME280;3945;48.952;9.506;2023-05-08T05:15:55;98284.25;;;14.96;100.00
7802;BME280;3945;48.952;9.506;2023-05-08T05:18:23;98282.66;;;15.00;100.00
7802;BME280;3945;48.952;9.506;2023-05-08T05:20:50;98289.63;;;15.01;100.00
7802;BME280;3945;48.952;9.506;2023-05-08T05:23:16;98279.97;;;15.00;100.00
7802;BME280;3945;48.952;9.506;2023-05-08T05:25:42;98286.69;;;15.02;100.00
7802;BME280;3945;48.952;9.506;2023-05-08T05:28:12;98291.78;;;15.04;100.00
7802;BME280;3945;48.952;9.506;2023-05-08T05:30:38;98286.69;;;15.07;100.00
7802;BME280;3945;48.952;9.506;2023-05-08T05:33:06;98288.06;;;15.10;100.00
7802;BME280;3945;48.952;9.506;2023-05-08T05:35:32;98289.44;;;15.12;100.00
7802;BME280;3945;48.952;9.506;2023-05-08T05:37:58;98296.66;;;15.12;100.00
7802;BME280;3945;48.952;9.506;2023-05-08T05:40:25;98297.19;;;15.14;100.00
7802;BME280;3945;48.952;9.506;2023-05-08T05:42:51;98294.56;;;15.19;100.00
7802;BME280;3945;48.952;9.506;2023-05-08T05:45:18;98294.28;;;15.20;100.00
7802;BME280;3945;48.952;9.506;2023-05-08T05:47:44;98298.31;;;15.23;100.00
7802;BME280;3945;48.952;9.506;2023-05-08T05:50:15;98300.50;;;15.26;100.00
7802;BME280;3945;48.952;9.506;2023-05-08T05:52:42;98303.97;;;15.27;100.00
7802;BME280;3945;48.952;9.506;2023-05-08T05:55:09;98293.50;;;15.30;100.00
7802;BME280;3945;48.952;9.506;2023-05-08T05:57:35;98297.31;;;15.34;100.00
7802;BME280;3945;48.952;9.506;2023-05-08T06:00:02;98293.00;;;15.38;100.00
7802;BME280;3945;48.952;9.506;2023-05-08T06:02:29;98298.66;;;15.42;100.00
7802;BME280;3945;48.952;9.506;2023-05-08T06:04:56;98293.59;;;15.45;100.00
7802;BME280;3945;48.952;9.506;2023-05-08T06:07:24;98298.94;;;15.50;100.00
7802;BME280;3945;48.952;9.506;2023-05-08T06:09:51;98303.84;;;15.53;100.00
7802;BME280;3945;48.952;9.506;2023-05-08T06:12:17;98295.78;;;15.53;100.00
7802;BME280;3945;48.952;9.506;2023-05-08T06:14:44;98301.97;;;15.59;100.00
7802;BME280;3945;48.952;9.506;2023-05-08T06:17:10;98299.84;;;15.66;100.00
7802;BME280;3945;48.952;9.506;2023-05-08T06:19:37;98301.72;;;15.71;100.00
7802;BME280;3945;48.952;9.506;2023-05-08T06:22:03;98308.19;;;15.75;100.00
7802;BME280;3945;48.952;9.506;2023-05-08T06:24:31;98299.06;;;15.76;100.00
7802;BME280;3945;48.952;9.506;2023-05-08T06:26:58;98304.19;;;15.77;100.00
7802;BME280;3945;48.952;9.506;2023-05-08T06:29:24;98304.44;;;15.81;100.00
7802;BME280;3945;48.952;9.506;2023-05-08T06:31:50;98305.50;;;15.85;100.00
7802;BME280;3945;48.952;9.506;2023-05-08T06:34:17;98309.81;;;15.86;100.00
7802;BME280;3945;48.952;9.506;2023-05-08T06:36:43;98313.31;;;15.86;100.00
7802;BME280;3945;48.952;9.506;2023-05-08T06:39:10;98305.81;;;15.88;100.00
7802;BME280;3945;48.952;9.506;2023-05-08T06:41:37;98310.38;;;15.93;100.00
7802;BME280;3945;48.952;9.506;2023-05-08T06:44:04;98318.72;;;15.96;100.00
7802;BME280;3945;48.952;9.506;2023-05-08T06:46:30;98310.91;;;16.00;100.00
7802;BME280;3945;48.952;9.506;2023-05-08T06:48:56;98315.47;;;15.99;100.00
7802;BME280;3945;48.952;9.506;2023-05-08T06:51:23;98316.03;;;16.01;100.00
7802;BME280;3945;48.952;9.506;2023-05-08T06:53:49;98307.97;;;16.07;100.00
7802;BME280;3945;48.952;9.506;2023-05-08T06:56:15;98304.75;;;16.15;100.00
7802;BME280;3945;48.952;9.506;2023-05-08T06:58:43;98303.16;;;16.24;100.00
7802;BME280;3945;48.952;9.506;2023-05-08T07:01:09;98301.56;;;16.33;100.00
7802;BME280;3945;48.952;9.506;2023-05-08T07:03:36;98305.03;;;16.44;100.00
7802;BME280;3945;48.952;9.506;2023-05-08T07:06:05;98314.19;;;16.53;100.00
7802;BME280;3945;48.952;9.506;2023-05-08T07:08:32;98303.47;;;16.63;100.00
7802;BME280;3945;48.952;9.506;2023-05-08T07:10:59;98308.81;;;16.73;100.00
7802;BME280;3945;48.952;9.506;2023-05-08T07:13:25;98311.53;;;16.78;100.00
7802;BME280;3945;48.952;9.506;2023-05-08T07:15:54;98304.78;;;16.86;99.83
7802;BME280;3945;48.952;9.506;2023-05-08T07:18:20;98314.72;;;16.85;99.15
7802;BME280;3945;48.952;9.506;2023-05-08T07:20:46;98311.75;;;16.92;99.06
7802;BME280;3945;48.952;9.506;2023-05-08T07:23:13;98311.75;;;16.97;98.84
7802;BME280;3945;48.952;9.506;2023-05-08T07:25:39;98319.53;;;16.98;98.15
7802;BME280;3945;48.952;9.506;2023-05-08T07:28:05;98322.47;;;17.02;97.88
7802;BME280;3945;48.952;9.506;2023-05-08T07:30:32;98328.66;;;17.02;97.56
7802;BME280;3945;48.952;9.506;2023-05-08T07:33:00;98325.97;;;17.02;96.75
7802;BME280;3945;48.952;9.506;2023-05-08T07:35:27;98318.44;;;17.04;96.68
7802;BME280;3945;48.952;9.506;2023-05-08T07:37:54;98321.66;;;17.01;96.21
7802;BME280;3945;48.952;9.506;2023-05-08T07:40:20;98325.72;;;17.04;96.06
7802;BME280;3945;48.952;9.506;2023-05-08T07:42:46;98327.59;;;17.03;95.99
7802;BME280;3945;48.952;9.506;2023-05-08T07:45:12;98325.97;;;17.02;96.67
7802;BME280;3945;48.952;9.506;2023-05-08T07:47:47;98333.22;;;17.02;96.92
7802;BME280;3945;48.952;9.506;2023-05-08T07:50:14;98333.50;;;17.00;97.12
7802;BME280;3945;48.952;9.506;2023-05-08T07:52:41;98341.31;;;17.02;97.10
7802;BME280;3945;48.952;9.506;2023-05-08T07:55:08;98335.41;;;17.00;97.27
7802;BME280;3945;48.952;9.506;2023-05-08T07:57:35;98339.69;;;17.01;96.62
7802;BME280;3945;48.952;9.506;2023-05-08T08:00:01;98335.41;;;17.00;95.85
7802;BME280;3945;48.952;9.506;2023-05-08T08:02:28;98338.34;;;17.03;95.63
7802;BME280;3945;48.952;9.506;2023-05-08T08:04:56;98335.94;;;17.07;95.61
7802;BME280;3945;48.952;9.506;2023-05-08T08:07:24;98332.41;;;17.11;96.16
7802;BME280;3945;48.952;9.506;2023-05-08T08:09:51;98335.66;;;17.13;95.44
7802;BME280;3945;48.952;9.506;2023-05-08T08:12:17;98334.00;;;17.17;95.73
7802;BME280;3945;48.952;9.506;2023-05-08T08:14:44;98339.13;;;17.19;94.63
7802;BME280;3945;48.952;9.506;2023-05-08T08:17:11;98342.09;;;17.17;94.53
7802;BME280;3945;48.952;9.506;2023-05-08T08:19:37;98347.47;;;17.17;94.55
7802;BME280;3945;48.952;9.506;2023-05-08T08:22:04;98341.53;;;17.21;94.04
7802;BME280;3945;48.952;9.506;2023-05-08T08:24:32;98341.25;;;17.22;94.40
7802;BME280;3945;48.952;9.506;2023-05-08T08:26:58;98341.25;;;17.27;94.20
7802;BME280;3945;48.952;9.506;2023-05-08T08:29:24;98347.69;;;17.31;94.16
7802;BME280;3945;48.952;9.506;2023-05-08T08:31:51;98339.09;;;17.34;93.26
7802;BME280;3945;48.952;9.506;2023-05-08T08:34:17;98354.94;;;17.41;93.70
7802;BME280;3945;48.952;9.506;2023-05-08T08:36:44;98350.06;;;17.48;94.60
7802;BME280;3945;48.952;9.506;2023-05-08T08:39:10;98352.72;;;17.53;94.76
7802;BME280;3945;48.952;9.506;2023-05-08T08:41:38;98356.22;;;17.53;93.90
7802;BME280;3945;48.952;9.506;2023-05-08T08:44:04;98350.84;;;17.53;94.09
7802;BME280;3945;48.952;9.506;2023-05-08T08:46:31;98349.22;;;17.52;94.13
7802;BME280;3945;48.952;9.506;2023-05-08T08:48:58;98352.19;;;17.51;93.90
7802;BME280;3945;48.952;9.506;2023-05-08T08:51:30;98359.75;;;17.49;93.79
7802;BME280;3945;48.952;9.506;2023-05-08T08:53:59;98348.19;;;17.48;94.02
7802;BME280;3945;48.952;9.506;2023-05-08T08:56:28;98350.06;;;17.48;94.14
7802;BME280;3945;48.952;9.506;2023-05-08T08:58:57;98348.72;;;17.50;93.99
7802;BME280;3945;48.952;9.506;2023-05-08T09:01:24;98354.34;;;17.54;94.65
7802;BME280;3945;48.952;9.506;2023-05-08T09:03:51;98353.81;;;17.57;94.22
7802;BME280;3945;48.952;9.506;2023-05-08T09:06:17;98353.81;;;17.62;93.92
7802;BME280;3945;48.952;9.506;2023-05-08T09:08:44;98350.28;;;17.72;91.05
7802;BME280;3945;48.952;9.506;2023-05-08T09:11:11;98354.81;;;17.76;91.89
7802;BME280;3945;48.952;9.506;2023-05-08T09:13:37;98351.81;;;17.83;90.74
7802;BME280;3945;48.952;9.506;2023-05-08T09:16:05;98350.19;;;17.87;91.50
7802;BME280;3945;48.952;9.506;2023-05-08T09:18:32;98353.13;;;17.90;91.47
7802;BME280;3945;48.952;9.506;2023-05-08T09:20:58;98356.59;;;17.96;91.72
7802;BME280;3945;48.952;9.506;2023-05-08T09:23:25;98355.75;;;18.06;91.04
7802;BME280;3945;48.952;9.506;2023-05-08T09:25:52;98356.28;;;18.08;91.42
7802;BME280;3945;48.952;9.506;2023-05-08T09:28:19;98361.13;;;18.06;90.64
7802;BME280;3945;48.952;9.506;2023-05-08T09:30:49;98352.28;;;18.00;90.23
7802;BME280;3945;48.952;9.506;2023-05-08T09:33:17;98354.16;;;18.00;90.61
7802;BME280;3945;48.952;9.506;2023-05-08T09:35:44;98351.78;;;17.93;90.21
7802;BME280;3945;48.952;9.506;2023-05-08T09:40:56;98362.25;;;18.00;90.85
7802;BME280;3945;48.952;9.506;2023-05-08T09:43:30;98363.56;;;18.02;90.52
7802;BME280;3945;48.952;9.506;2023-05-08T09:45:56;98356.03;;;18.04;90.40
7802;BME280;3945;48.952;9.506;2023-05-08T09:48:36;98352.19;;;18.15;90.55
7802;BME280;3945;48.952;9.506;2023-05-08T09:51:06;98365.84;;;18.29;90.57
7802;BME280;3945;48.952;9.506;2023-05-08T09:53:32;98363.31;;;18.43;90.02
7802;BME280;3945;48.952;9.506;2023-05-08T09:55:59;98367.03;;;18.57;89.40
7802;BME280;3945;48.952;9.506;2023-05-08T09:58:25;98356.13;;;18.67;88.98
7802;BME280;3945;48.952;9.506;2023-05-08T10:01:02;98355.63;;;18.65;86.42
7802;BME280;3945;48.952;9.506;2023-05-08T10:06:12;98356.94;;;18.73;88.50
7802;BME280;3945;48.952;9.506;2023-05-08T10:08:38;98357.16;;;18.76;87.51
7802;BME280;3945;48.952;9.506;2023-05-08T10:11:11;98356.00;;;18.82;86.49
7802;BME280;3945;48.952;9.506;2023-05-08T10:13:38;98356.47;;;18.89;87.17
7802;BME280;3945;48.952;9.506;2023-05-08T10:16:04;98352.38;;;18.97;87.77
7802;BME280;3945;48.952;9.506;2023-05-08T10:18:32;98358.50;;;19.02;86.75
7802;BME280;3945;48.952;9.506;2023-05-08T10:21:00;98354.97;;;19.07;86.04
7802;BME280;3945;48.952;9.506;2023-05-08T10:23:31;98354.06;;;19.17;86.73
7802;BME280;3945;48.952;9.506;2023-05-08T10:26:00;98357.34;;;19.14;84.63
7802;BME280;3945;48.952;9.506;2023-05-08T10:28:31;98359.50;;;19.11;85.03
7802;BME280;3945;48.952;9.506;2023-05-08T10:31:02;98355.72;;;19.13;86.38
7802;BME280;3945;48.952;9.506;2023-05-08T10:33:29;98360.03;;;19.14;85.87
7802;BME280;3945;48.952;9.506;2023-05-08T10:35:56;98358.94;;;19.15;85.95
7802;BME280;3945;48.952;9.506;2023-05-08T10:38:23;98351.88;;;19.19;85.53
7802;BME280;3945;48.952;9.506;2023-05-08T10:40:51;98345.41;;;19.20;84.80
7802;BME280;3945;48.952;9.506;2023-05-08T10:43:22;98350.25;;;19.23;84.72
7802;BME280;3945;48.952;9.506;2023-05-08T10:45:48;98354.69;;;19.32;85.81
7802;BME280;3945;48.952;9.506;2023-05-08T10:48:18;98339.84;;;19.35;84.38
7802;BME280;3945;48.952;9.506;2023-05-08T10:50:50;98350.34;;;19.36;84.19
7802;BME280;3945;48.952;9.506;2023-05-08T10:53:21;98347.59;;;19.41;84.69
7802;BME280;3945;48.952;9.506;2023-05-08T10:55:51;98344.09;;;19.41;83.89
7802;BME280;3945;48.952;9.506;2023-05-08T10:58:27;98343.63;;;19.34;82.98
7802;BME280;3945;48.952;9.506;2023-05-08T11:01:10;98347.19;;;19.29;82.63
7802;BME280;3945;48.952;9.506;2023-05-08T11:03:37;98342.75;;;19.15;82.46
7802;BME280;3945;48.952;9.506;2023-05-08T11:06:04;98351.47;;;19.06;82.98
7802;BME280;3945;48.952;9.506;2023-05-08T11:08:31;98349.59;;;19.07;83.84
7802;BME280;3945;48.952;9.506;2023-05-08T11:11:04;98353.44;;;19.01;83.24
7802;BME280;3945;48.952;9.506;2023-05-08T11:13:31;98358.28;;;18.99;83.35
7802;BME280;3945;48.952;9.506;2023-05-08T11:15:58;98348.88;;;18.96;83.26
7802;BME280;3945;48.952;9.506;2023-05-08T11:18:25;98350.81;;;18.91;83.32
7802;BME280;3945;48.952;9.506;2023-05-08T11:20:55;98349.72;;;18.92;84.18
7802;BME280;3945;48.952;9.506;2023-05-08T11:23:22;98349.78;;;18.87;83.09
7802;BME280;3945;48.952;9.506;2023-05-08T11:25:57;98348.41;;;18.89;84.16
7802;BME280;3945;48.952;9.506;2023-05-08T11:28:25;98346.84;;;18.83;84.35
7802;BME280;3945;48.952;9.506;2023-05-08T11:30:52;98347.91;;;18.82;83.33
7802;BME280;3945;48.952;9.506;2023-05-08T11:33:19;98347.44;;;18.75;83.48
7802;BME280;3945;48.952;9.506;2023-05-08T11:35:54;98348.25;;;18.76;84.42
7802;BME280;3945;48.952;9.506;2023-05-08T11:38:28;98351.22;;;18.74;82.98
7802;BME280;3945;48.952;9.506;2023-05-08T11:40:56;98347.25;;;18.66;82.27
7802;BME280;3945;48.952;9.506;2023-05-08T11:43:33;98344.09;;;18.54;82.28
7802;BME280;3945;48.952;9.506;2023-05-08T11:46:04;98336.59;;;18.51;84.05
7802;BME280;3945;48.952;9.506;2023-05-08T11:48:32;98347.06;;;18.53;84.32
7802;BME280;3945;48.952;9.506;2023-05-08T11:51:00;98348.66;;;18.59;84.08
7802;BME280;3945;48.952;9.506;2023-05-08T11:53:26;98342.38;;;18.68;84.61
7802;BME280;3945;48.952;9.506;2023-05-08T11:55:54;98337.13;;;18.82;84.58
7802;BME280;3945;48.952;9.506;2023-05-08T11:58:20;98335.19;;;18.88;83.50
7802;BME280;3945;48.952;9.506;2023-05-08T12:00:48;98334.88;;;18.94;83.07
7802;BME280;3945;48.952;9.506;2023-05-08T12:03:16;98331.03;;;19.00;82.87
7802;BME280;3945;48.952;9.506;2023-05-08T12:05:43;98341.84;;;18.95;81.63
7802;BME280;3945;48.952;9.506;2023-05-08T12:08:09;98330.25;;;18.95;82.65
7802;BME280;3945;48.952;9.506;2023-05-08T12:10:39;98338.81;;;19.02;82.56
7802;BME280;3945;48.952;9.506;2023-05-08T12:13:15;98333.97;;;19.04;81.55
7802;BME280;3945;48.952;9.506;2023-05-08T12:15:42;98338.81;;;19.02;82.79
7802;BME280;3945;48.952;9.506;2023-05-08T12:18:10;98342.03;;;19.04;81.68
7802;BME280;3945;48.952;9.506;2023-05-08T12:20:36;98335.00;;;19.08;81.88
7802;BME280;3945;48.952;9.506;2023-05-08T12:23:03;98347.97;;;19.06;80.84
7802;BME280;3945;48.952;9.506;2023-05-08T12:25:29;98344.19;;;19.07;81.29
7802;BME280;3945;48.952;9.506;2023-05-08T12:27:56;98342.25;;;19.13;81.13
7802;BME280;3945;48.952;9.506;2023-05-08T12:30:23;98338.38;;;19.19;81.90
7802;BME280;3945;48.952;9.506;2023-05-08T12:32:50;98339.94;;;19.25;82.16
7802;BME280;3945;48.952;9.506;2023-05-08T12:35:18;98327.50;;;19.29;79.51
7802;BME280;3945;48.952;9.506;2023-05-08T12:37:45;98331.75;;;19.35;81.81
7802;BME280;3945;48.952;9.506;2023-05-08T12:40:21;98334.34;;;19.45;80.60
7802;BME280;3945;48.952;9.506;2023-05-08T12:42:49;98338.88;;;19.49;80.60
7802;BME280;3945;48.952;9.506;2023-05-08T12:45:16;98335.03;;;19.56;79.57
7802;BME280;3945;48.952;9.506;2023-05-08T12:47:46;98338.19;;;19.63;79.35
7802;BME280;3945;48.952;9.506;2023-05-08T12:50:13;98337.97;;;19.59;79.62
7802;BME280;3945;48.952;9.506;2023-05-08T12:52:41;98339.00;;;19.63;78.88
7802;BME280;3945;48.952;9.506;2023-05-08T12:55:18;98335.03;;;19.56;77.22
7802;BME280;3945;48.952;9.506;2023-05-08T12:57:45;98333.13;;;19.56;78.07
7802;BME280;3945;48.952;9.506;2023-05-08T13:00:13;98331.78;;;19.59;79.02
7802;BME280;3945;48.952;9.506;2023-05-08T13:02:41;98342.94;;;19.71;78.77
7802;BME280;3945;48.952;9.506;2023-05-08T13:05:17;98334.66;;;19.86;79.15
7802;BME280;3945;48.952;9.506;2023-05-08T13:07:46;98331.66;;;19.87;77.04
7802;BME280;3945;48.952;9.506;2023-05-08T13:10:12;98328.88;;;19.93;74.74
7802;BME280;3945;48.952;9.506;2023-05-08T13:12:39;98327.72;;;19.80;75.31
7802;BME280;3945;48.952;9.506;2023-05-08T13:15:06;98327.19;;;19.78;76.17
7802;BME280;3945;48.952;9.506;2023-05-08T13:17:33;98331.78;;;19.77;75.20
7802;BME280;3945;48.952;9.506;2023-05-08T13:19:59;98321.56;;;19.74;75.36
7802;BME280;3945;48.952;9.506;2023-05-08T13:22:27;98327.63;;;19.85;76.12
7802;BME280;3945;48.952;9.506;2023-05-08T13:24:54;98316.91;;;19.99;77.39
7802;BME280;3945;48.952;9.506;2023-05-08T13:27:21;98315.44;;;20.06;72.97